createdAt,value
2022-12-11T00:00:17.849Z,39.00
2022-12-11T00:03:19.921Z,39.88
2022-12-11T00:06:22.981Z,41.60
2022-12-11T00:09:24.680Z,40.00
2022-12-11T00:12:26.243Z,43.80
2022-12-11T00:15:28.605Z,40.85
2022-12-11T00:18:30.188Z,42.08
2022-12-11T00:21:31.965Z,39.40
2022-12-11T00:24:33.693Z,41.10
2022-12-11T00:27:35.508Z,40.45
2022-12-11T00:30:42.389Z,37.67
2022-12-11T00:33:45.110Z,40.00
2022-12-11T00:36:49.550Z,40.63
2022-12-11T00:39:51.630Z,44.17
2022-12-11T00:42:53.175Z,42.55
2022-12-11T00:45:54.890Z,42.40
2022-12-11T00:48:58.075Z,44.92
2022-12-11T00:51:59.688Z,43.65
2022-12-11T00:55:01.246Z,43.05
2022-12-11T00:58:03.334Z,41.92
2022-12-11T01:01:13.815Z,44.85
2022-12-11T01:04:15.405Z,45.67
2022-12-11T01:07:16.937Z,46.50
2022-12-11T01:10:24.454Z,49.25
2022-12-11T01:13:26.025Z,48.70
2022-12-11T01:16:27.616Z,44.63
2022-12-11T01:19:29.208Z,46.25
2022-12-11T01:22:31.299Z,44.85
2022-12-11T01:25:35.058Z,43.88
2022-12-11T01:28:36.992Z,44.20
2022-12-11T01:31:38.719Z,43.10
2022-12-11T01:34:40.283Z,46.92
2022-12-11T01:37:41.877Z,45.92
2022-12-11T01:40:51.252Z,48.30
2022-12-11T01:44:31.013Z,44.97
2022-12-11T01:47:35.399Z,44.40
2022-12-11T01:50:42.111Z,47.03
2022-12-11T01:53:57.980Z,43.42
2022-12-11T01:57:04.247Z,41.53
2022-12-11T02:00:06.448Z,41.05
2022-12-11T02:03:08.530Z,38.35
2022-12-11T02:06:32.157Z,38.13
2022-12-11T02:09:36.189Z,37.15
2022-12-11T02:12:53.017Z,33.88
2022-12-11T02:16:21.205Z,37.42
2022-12-11T02:19:44.228Z,35.80
2022-12-11T02:23:12.450Z,36.25
2022-12-11T02:26:50.403Z,33.90
2022-12-11T02:30:12.226Z,33.88
2022-12-11T02:33:14.907Z,34.05
2022-12-11T02:36:19.205Z,33.83
2022-12-11T02:39:41.830Z,36.15
2022-12-11T02:42:47.430Z,37.63
2022-12-11T02:45:51.505Z,36.47
2022-12-11T02:48:54.063Z,35.05
2022-12-11T02:51:56.674Z,36.97
2022-12-11T02:55:00.808Z,35.60
2022-12-11T02:58:16.112Z,36.42
2022-12-11T03:01:17.725Z,33.95
2022-12-11T03:04:19.427Z,34.88
2022-12-11T03:07:26.164Z,32.30
2022-12-11T03:10:27.721Z,32.28
2022-12-11T03:13:29.359Z,34.13
2022-12-11T03:16:33.691Z,32.50
2022-12-11T03:19:42.800Z,33.17
2022-12-11T03:22:49.978Z,30.25
2022-12-11T03:26:03.235Z,31.27
2022-12-11T03:29:16.619Z,33.53
2022-12-11T03:32:27.543Z,32.15
2022-12-11T03:35:43.803Z,34.78
2022-12-11T03:38:56.061Z,35.55
2022-12-11T03:41:59.690Z,34.95
2022-12-11T03:45:03.343Z,35.92
2022-12-11T03:48:06.259Z,36.92
2022-12-11T03:51:09.148Z,34.63
2022-12-11T03:54:11.294Z,33.72
2022-12-11T03:57:17.663Z,37.88
2022-12-11T04:00:21.710Z,36.80
2022-12-11T04:03:23.390Z,35.47
2022-12-11T04:06:24.996Z,37.25
2022-12-11T04:09:26.555Z,35.88
2022-12-11T04:12:28.119Z,38.55
2022-12-11T04:15:29.649Z,35.90
2022-12-11T04:18:49.841Z,35.78
2022-12-11T04:22:10.271Z,36.17
2022-12-11T04:25:12.180Z,37.10
2022-12-11T04:28:13.943Z,40.17
2022-12-11T04:31:18.873Z,38.15
2022-12-11T04:34:20.573Z,37.53
2022-12-11T04:37:22.096Z,40.95
2022-12-11T04:40:24.003Z,40.33
2022-12-11T04:43:25.593Z,40.78
2022-12-11T04:46:27.264Z,38.25
2022-12-11T04:49:28.825Z,37.95
2022-12-11T04:52:30.602Z,37.50
2022-12-11T04:55:32.122Z,37.28
2022-12-11T04:58:33.918Z,38.53
2022-12-11T05:01:35.585Z,39.15
2022-12-11T05:04:41.494Z,35.90
2022-12-11T05:07:43.409Z,40.42
2022-12-11T05:10:49.967Z,39.03
2022-12-11T05:13:52.146Z,38.42
2022-12-11T05:16:53.788Z,39.15
2022-12-11T05:19:55.306Z,38.28
2022-12-11T05:22:56.893Z,49.28
2022-12-11T05:26:04.098Z,40.55
2022-12-11T05:29:05.803Z,40.47
2022-12-11T05:32:07.422Z,40.33
2022-12-11T05:35:09.952Z,39.10
2022-12-11T05:38:11.849Z,40.42
2022-12-11T05:41:17.257Z,37.72
2022-12-11T05:44:18.800Z,38.33
2022-12-11T05:47:21.061Z,39.35
2022-12-11T05:50:22.613Z,38.30
2022-12-11T05:53:24.399Z,37.15
2022-12-11T05:56:28.526Z,38.80
2022-12-11T05:59:30.087Z,37.83
2022-12-11T06:02:31.773Z,36.67
2022-12-11T06:05:38.387Z,39.13
2022-12-11T06:08:40.207Z,39.47
2022-12-11T06:11:41.780Z,39.90
2022-12-11T06:14:43.444Z,38.42
2022-12-11T06:17:44.983Z,38.85
2022-12-11T06:20:46.589Z,36.40
2022-12-11T06:23:49.605Z,38.15
2022-12-11T06:26:51.211Z,36.90
2022-12-11T06:29:52.728Z,37.28
2022-12-11T06:32:54.417Z,39.45
2022-12-11T06:35:56.784Z,40.10
2022-12-11T06:38:58.413Z,34.88
2022-12-11T06:42:00.000Z,38.83
2022-12-11T06:45:02.010Z,37.22
2022-12-11T06:48:04.181Z,40.70
2022-12-11T06:51:08.082Z,40.67
2022-12-11T06:54:09.641Z,40.42
2022-12-11T06:57:11.528Z,38.30
2022-12-11T07:00:13.981Z,39.83
2022-12-11T07:03:15.551Z,38.28
2022-12-11T07:06:17.302Z,39.20
2022-12-11T07:09:19.076Z,39.10
2022-12-11T07:12:21.082Z,39.72
2022-12-11T07:15:22.616Z,36.63
2022-12-11T07:18:24.204Z,39.13
2022-12-11T07:21:25.933Z,38.33
2022-12-11T07:24:27.549Z,40.58
2022-12-11T07:27:29.327Z,37.85
2022-12-11T07:30:31.061Z,38.92
2022-12-11T07:33:32.720Z,40.78
2022-12-11T07:36:34.961Z,37.95
2022-12-11T07:39:36.597Z,38.58
2022-12-11T07:42:41.480Z,36.67
2022-12-11T07:45:47.576Z,38.47
2022-12-11T07:48:49.802Z,38.30
2022-12-11T07:51:51.385Z,37.30
2022-12-11T07:54:53.076Z,35.97
2022-12-11T07:57:54.628Z,38.78
2022-12-11T08:00:56.431Z,37.28
2022-12-11T08:03:58.208Z,37.85
2022-12-11T08:06:59.972Z,37.05
2022-12-11T08:10:01.940Z,36.72
2022-12-11T08:13:05.442Z,36.67
2022-12-11T08:16:09.210Z,36.45
2022-12-11T08:19:14.493Z,36.85
2022-12-11T08:22:16.215Z,38.75
2022-12-11T08:25:17.760Z,36.35
2022-12-11T08:28:19.314Z,36.28
2022-12-11T08:31:24.643Z,35.72
2022-12-11T08:34:26.275Z,36.08
2022-12-11T08:37:29.489Z,33.08
2022-12-11T08:40:31.068Z,33.22
2022-12-11T08:43:34.324Z,36.63
2022-12-11T08:46:35.997Z,37.28
2022-12-11T08:49:37.711Z,36.97
2022-12-11T08:52:39.359Z,34.38
2022-12-11T08:55:41.754Z,33.38
2022-12-11T08:58:44.599Z,32.83
2022-12-11T09:01:46.157Z,36.17
2022-12-11T09:04:47.720Z,32.97
2022-12-11T09:07:49.743Z,35.65
2022-12-11T09:10:51.357Z,34.47
2022-12-11T09:13:53.399Z,37.47
2022-12-11T09:16:54.962Z,33.05
2022-12-11T09:19:56.621Z,32.85
2022-12-11T09:22:58.175Z,35.58
2022-12-11T09:26:03.280Z,37.42
2022-12-11T09:29:06.092Z,34.83
2022-12-11T09:32:07.984Z,36.30
2022-12-11T09:35:10.078Z,34.08
2022-12-11T09:38:12.111Z,36.60
2022-12-11T09:41:23.026Z,36.92
2022-12-11T09:44:45.819Z,35.03
2022-12-11T09:47:52.501Z,36.38
2022-12-11T09:50:55.408Z,32.95
2022-12-11T09:54:01.048Z,34.67
2022-12-11T09:57:18.930Z,35.28
2022-12-11T10:00:29.442Z,32.83
2022-12-11T10:03:36.877Z,34.80
2022-12-11T10:06:50.626Z,33.33
2022-12-11T10:10:07.639Z,36.22
2022-12-11T10:13:28.116Z,33.25
2022-12-11T10:16:35.726Z,33.72
2022-12-11T10:19:40.796Z,32.78
2022-12-11T10:22:43.046Z,34.28
2022-12-11T10:26:07.917Z,31.17
2022-12-11T10:29:14.768Z,32.40
2022-12-11T10:32:24.450Z,32.75
2022-12-11T10:35:28.792Z,33.13
2022-12-11T10:38:38.670Z,30.13
2022-12-11T10:41:43.477Z,31.83
2022-12-11T10:45:02.802Z,33.63
2022-12-11T10:48:11.222Z,29.67
2022-12-11T10:51:12.931Z,30.83
2022-12-11T10:54:19.912Z,32.22
2022-12-11T10:57:32.195Z,31.75
2022-12-11T11:00:40.310Z,29.92
2022-12-11T11:03:51.560Z,32.17
2022-12-11T11:07:39.263Z,33.75
2022-12-11T11:11:20.415Z,31.85
2022-12-11T11:14:25.324Z,33.50
2022-12-11T11:17:32.010Z,31.13
2022-12-11T11:20:36.243Z,32.90
2022-12-11T11:23:45.496Z,29.85
2022-12-11T11:30:23.241Z,31.15
2022-12-11T11:36:29.027Z,28.40
2022-12-11T11:39:38.729Z,30.13
2022-12-11T11:42:45.574Z,31.13
2022-12-11T11:45:55.592Z,27.15
2022-12-11T11:49:03.887Z,29.42
2022-12-11T11:52:16.644Z,29.70
2022-12-11T11:55:55.566Z,29.55
2022-12-11T11:59:21.775Z,29.77
2022-12-11T12:02:23.687Z,30.98
2022-12-11T12:05:44.781Z,30.48
2022-12-11T12:09:03.179Z,28.73
2022-12-11T12:12:38.409Z,27.33
2022-12-11T12:15:58.893Z,30.35
2022-12-11T12:19:32.985Z,30.98
2022-12-11T12:22:40.442Z,28.42
2022-12-11T12:25:51.582Z,29.40
2022-12-11T12:29:20.917Z,29.17
2022-12-11T12:32:34.320Z,29.17
2022-12-11T12:35:38.374Z,28.58
2022-12-11T12:38:50.032Z,28.70
2022-12-11T12:42:18.473Z,29.83
2022-12-11T12:45:32.913Z,28.15
2022-12-11T12:48:34.896Z,30.42
2022-12-11T12:51:37.980Z,27.02
2022-12-11T12:54:42.864Z,29.10
2022-12-11T12:58:05.388Z,26.55
2022-12-11T13:01:14.088Z,29.55
2022-12-11T13:04:55.474Z,29.98
2022-12-11T13:08:00.932Z,29.40
2022-12-11T13:11:06.810Z,28.92
2022-12-11T13:14:33.247Z,26.92
2022-12-11T13:17:38.066Z,27.30
2022-12-11T13:20:50.906Z,27.95
2022-12-11T13:23:52.817Z,27.20
2022-12-11T13:26:55.156Z,27.48
2022-12-11T13:30:22.485Z,26.52
2022-12-11T13:33:25.544Z,28.40
2022-12-11T13:36:36.021Z,29.42
2022-12-11T13:39:39.251Z,26.25
2022-12-11T13:42:49.989Z,31.27
2022-12-11T13:49:00.720Z,27.70
2022-12-11T13:52:02.750Z,26.13
2022-12-11T13:55:21.191Z,27.80
2022-12-11T13:58:23.524Z,28.92
2022-12-11T14:01:29.272Z,29.70
2022-12-11T14:04:33.961Z,31.95
2022-12-11T14:07:40.734Z,29.83
2022-12-11T14:10:42.309Z,31.23
2022-12-11T14:13:45.472Z,31.35
2022-12-11T14:16:50.011Z,30.10
2022-12-11T14:19:53.353Z,29.98
2022-12-11T14:23:15.873Z,32.92
2022-12-11T14:26:40.304Z,31.13
2022-12-11T14:29:42.125Z,30.95
2022-12-11T14:32:45.504Z,29.75
2022-12-11T14:35:48.521Z,31.40
2022-12-11T14:38:55.833Z,31.38
2022-12-11T14:42:07.679Z,29.92
2022-12-11T14:45:38.155Z,32.40
2022-12-11T14:48:47.998Z,32.35
2022-12-11T14:51:51.565Z,32.47
2022-12-11T14:54:59.905Z,31.13
2022-12-11T14:58:14.987Z,33.00
2022-12-11T15:01:28.791Z,30.55
2022-12-11T15:04:32.757Z,32.03
2022-12-11T15:07:34.558Z,28.70
2022-12-11T15:10:40.936Z,33.88
2022-12-11T15:13:56.398Z,31.25
2022-12-11T15:16:59.267Z,32.53
2022-12-11T15:20:08.877Z,29.88
2022-12-11T15:23:15.520Z,28.63
2022-12-11T15:26:31.949Z,31.45
2022-12-11T15:29:39.090Z,30.27
2022-12-11T15:32:40.856Z,32.65
2022-12-11T15:35:57.027Z,34.10
2022-12-11T15:38:58.620Z,30.52
2022-12-11T15:42:00.185Z,34.45
2022-12-11T15:45:04.848Z,31.52
2022-12-11T15:48:08.675Z,30.98
2022-12-11T15:51:13.707Z,29.88
2022-12-11T15:54:15.229Z,30.13
2022-12-11T15:57:25.878Z,27.63
2022-12-11T16:00:28.112Z,32.90
2022-12-11T16:03:29.706Z,32.22
2022-12-11T16:06:31.230Z,31.67
2022-12-11T16:09:34.558Z,33.20
2022-12-11T16:12:36.181Z,32.58
2022-12-11T16:15:46.021Z,32.47
2022-12-11T16:18:47.645Z,33.63
2022-12-11T16:21:49.478Z,38.22
2022-12-11T16:24:54.877Z,37.92
2022-12-11T16:27:57.913Z,35.47
2022-12-11T16:30:59.492Z,37.65
2022-12-11T16:34:01.074Z,35.10
2022-12-11T16:37:02.894Z,36.10
2022-12-11T16:40:06.558Z,36.90
2022-12-11T16:43:08.755Z,36.88
2022-12-11T16:46:10.360Z,35.83
2022-12-11T16:49:12.159Z,35.63
2022-12-11T16:52:17.648Z,35.45
2022-12-11T16:55:23.664Z,34.88
2022-12-11T16:58:25.211Z,38.22
2022-12-11T17:01:27.103Z,32.80
2022-12-11T17:04:28.764Z,35.15
2022-12-11T17:07:32.465Z,32.50
2022-12-11T17:10:34.134Z,37.28
2022-12-11T17:13:36.476Z,34.25
2022-12-11T17:16:38.173Z,34.53
2022-12-11T17:19:39.926Z,33.80
2022-12-11T17:22:41.693Z,33.45
2022-12-11T17:25:45.202Z,32.40
2022-12-11T17:28:46.915Z,30.85
2022-12-11T17:31:48.442Z,34.65
2022-12-11T17:34:50.424Z,34.72
2022-12-11T17:37:52.128Z,37.65
2022-12-11T17:40:54.230Z,35.50
2022-12-11T17:43:55.909Z,32.08
2022-12-11T17:47:07.527Z,32.63
2022-12-11T17:50:12.687Z,34.65
2022-12-11T17:53:18.546Z,33.03
2022-12-11T17:56:20.176Z,34.95
2022-12-11T17:59:21.698Z,34.17
2022-12-11T18:02:23.517Z,37.00
2022-12-11T18:05:25.344Z,39.65
2022-12-11T18:08:30.630Z,36.75
2022-12-11T18:11:32.623Z,38.25
2022-12-11T18:14:34.619Z,36.95
2022-12-11T18:17:39.571Z,35.85
2022-12-11T18:20:41.186Z,34.97
2022-12-11T18:23:42.855Z,34.25
2022-12-11T18:26:44.808Z,33.97
2022-12-11T18:29:46.388Z,33.05
2022-12-11T18:32:48.652Z,31.95
2022-12-11T18:35:51.531Z,37.17
2022-12-11T18:38:54.663Z,37.22
2022-12-11T18:42:24.331Z,42.95
2022-12-11T18:45:17.930Z,37.28
2022-12-11T18:48:19.502Z,38.83
2022-12-11T18:51:25.218Z,41.40
2022-12-11T18:54:26.852Z,37.90
2022-12-11T18:57:28.453Z,38.03
2022-12-11T19:00:29.985Z,35.55
2022-12-11T19:03:31.596Z,32.92
2022-12-11T19:06:35.441Z,37.03
2022-12-11T19:09:38.473Z,41.85
2022-12-11T19:12:42.829Z,38.33
2022-12-11T19:15:44.526Z,38.72
2022-12-11T19:18:49.466Z,36.30
2022-12-11T19:21:51.110Z,35.25
2022-12-11T19:24:52.680Z,36.72
2022-12-11T19:27:56.736Z,36.08
2022-12-11T19:30:59.123Z,34.08
2022-12-11T19:34:01.244Z,36.92
2022-12-11T19:37:02.910Z,35.40
2022-12-11T19:40:04.934Z,36.53
2022-12-11T19:43:06.629Z,38.65
2022-12-11T19:46:09.916Z,33.17
2022-12-11T19:49:12.487Z,37.80
2022-12-11T19:52:14.003Z,36.97
2022-12-11T19:55:15.918Z,36.72
2022-12-11T19:58:17.727Z,36.97
2022-12-11T20:01:30.078Z,36.28
2022-12-11T20:04:31.839Z,36.17
2022-12-11T20:07:33.383Z,37.47
2022-12-11T20:10:36.933Z,35.20
2022-12-11T20:13:40.466Z,35.75
2022-12-11T20:20:04.539Z,37.50
2022-12-11T20:23:07.944Z,37.17
2022-12-11T20:26:18.834Z,36.33
2022-12-11T20:29:22.416Z,34.63
2022-12-11T20:32:24.382Z,36.25
2022-12-11T20:35:30.285Z,37.13
2022-12-11T20:38:34.579Z,37.58
2022-12-11T20:41:36.307Z,37.90
2022-12-11T20:44:38.059Z,37.85
2022-12-11T20:47:42.706Z,36.47
2022-12-11T20:50:44.345Z,37.00
2022-12-11T20:53:45.980Z,36.60
2022-12-11T20:56:47.663Z,36.92
2022-12-11T20:59:49.547Z,39.50
2022-12-11T21:02:51.619Z,38.05
2022-12-11T21:05:53.267Z,39.53
2022-12-11T21:08:54.956Z,39.88
2022-12-11T21:12:02.345Z,40.03
2022-12-11T21:15:04.861Z,36.03
2022-12-11T21:18:07.859Z,42.38
2022-12-11T21:21:09.665Z,38.03
2022-12-11T21:24:17.011Z,36.65
2022-12-11T21:27:18.898Z,39.13
2022-12-11T21:30:20.929Z,37.40
2022-12-11T21:33:22.475Z,38.83
2022-12-11T21:36:24.355Z,37.45
2022-12-11T21:39:33.576Z,39.97
2022-12-11T21:42:37.742Z,37.22
2022-12-11T21:49:00.941Z,39.60
2022-12-11T21:52:02.934Z,36.70
2022-12-11T21:55:05.694Z,37.08
2022-12-11T21:58:07.612Z,39.25
2022-12-11T22:01:22.258Z,39.15
2022-12-11T22:04:24.081Z,39.60
2022-12-11T22:07:25.977Z,35.85
2022-12-11T22:10:28.668Z,37.42
2022-12-11T22:13:30.542Z,41.55
2022-12-11T22:16:32.825Z,38.95
2022-12-11T22:19:34.393Z,38.95
2022-12-11T22:22:35.899Z,33.97
2022-12-11T22:25:37.839Z,39.63
2022-12-11T22:28:39.446Z,38.50
2022-12-11T22:31:40.963Z,39.97
2022-12-11T22:34:42.546Z,38.83
2022-12-11T22:37:44.088Z,37.30
2022-12-11T22:40:46.059Z,38.50
2022-12-11T22:43:47.656Z,37.92
2022-12-11T22:46:50.436Z,36.45
2022-12-11T22:49:52.433Z,36.10
2022-12-11T22:52:53.985Z,39.83
2022-12-11T22:55:56.595Z,37.85
2022-12-11T22:58:58.487Z,36.92
2022-12-11T23:02:02.337Z,39.45
2022-12-11T23:05:07.808Z,42.70
2022-12-11T23:08:09.452Z,39.88
2022-12-11T23:11:14.071Z,37.47
2022-12-11T23:14:19.686Z,37.42
2022-12-11T23:17:24.201Z,39.30
2022-12-11T23:20:26.206Z,40.17
2022-12-11T23:23:35.545Z,38.25
2022-12-11T23:26:37.991Z,38.53
2022-12-11T23:29:39.593Z,37.67
2022-12-11T23:32:41.107Z,37.30
2022-12-11T23:35:42.679Z,37.08
2022-12-11T23:38:49.536Z,39.40
2022-12-11T23:41:54.329Z,39.58
2022-12-11T23:44:55.953Z,39.17
2022-12-11T23:47:57.549Z,39.67
2022-12-11T23:51:00.838Z,37.35
2022-12-11T23:54:02.961Z,37.92
2022-12-11T23:57:04.557Z,36.33
